메인 페이지
METAR-TAF:

METAR-TAF

공항 :

산후안, 푸에르토리코, 미국

위도: 18-27N, 경도: 066-00W, 고도: 3m

현재 날씨관측

예보는 9분 전, 01:56시(UTC)에 발표되었습니다.
동남동5kt
온도 27°C
습도 84%
기압 1017 hPa
시정: 14.5km
고도 2900ft 상공 구름 조금
고도 7000ft 상공 구름 보통
고도 8000ft 상공 구름 보통
약한비

METAR: TJSJ 250156Z 11005KT 9SM -RA FEW029 SCT070 SCT080 27/24 A3002 RMK AO2 RAB30 SLP165 P0001 T02670239

시각: 22:05 (02:05 UTC)

예보

예보는 13분 전, 01:52시(UTC)에 발표되었습니다.
예보 대상 시간: 25일 02시부터 25일 24시까지 (UTC)
남동4kt
시정: 10km
고도 2500ft 상공 구름 조금
고도 4000ft 상공 구름 보통
시계 내 소나기
25일 1500시부터 (UTC)
동북동14kt
시정: 10km
고도 2500ft 상공 구름 보통, 적란운.
고도 6000ft 상공 구름 많음
시계 내 뇌우
25일 2300시부터 (UTC)
6kt
시정: 10km
고도 3000ft 상공 구름 보통
고도 6000ft 상공 구름 보통

TAF: TJSJ 250152Z 2502/2524 13004KT P6SM VCSH FEW025 SCT040 FM251500 07014KT P6SM VCTS SCT025CB BKN060 FM252300 10006KT P6SM SCT030 SCT060

4,000개 이상의 공항 관측 자료 및 예보 (METAR 및 TAF 보고).

지도상에서 검색 가능한 기상관측소가 노란 점과 빨간 점으로 표시되어 있습니다.

기상관측소 명을 보려면 표시 위로 마우스를 이동하세요.

날씨 관측과 예보를 보려면 클릭하세요.

지도 변경 : 확대하려면 엑스 표시가 있는 녹색 버튼, 축소하려면 빼기 표시가 있는 녹색 버튼, 다음 페이지의 지도를 보려면 녹색 화살표를 클릭하세요.


METAR-TAF: